Dothan, Alabama
Current Conditions -  °F | °C
As of 7:53 PM on Friday 24 Oct 2014 (Local Time) from KDHN Reporting Station
Clear Clear  
Wind Chill: 13°   Ceiling: Unl
Heat Index: 13°   Visibility: 10mi
Dew Point:   Wind: 3mph
Humidity: 69%   Direction: 340°NNW
Pressure: 30.05"   Gusts: NA
Location:  31.22°N, 85.39°W
Report Text: KDHN 250053Z 34003KT 10SM CLR 13/08 A3005 RMK AO2 SLP175 T01330078
Loading
Personal Weather Stations






























Interactive Weather Map
Tropical Storm Tracking
New forecast layout! Learn more

10-Day Weather Forecast

Advertisements
Track Severe Weather on mobile